Metar Aviation Weather Data EGAC George Best Belfast City

14°C Temp
13°C Dewpoint
94% Humidity
Temperature
3 KM/H
2 MPH
2 KTS
Calm
Due North

Wind Speed
Partly Cloudy
Conditions
Pressure 1018 (hPa) - 30.06 (in)
Visibility 2.8 (mi) - 5 (km)

Current Conditions
EGAC
George Best Belfast City
Metar :EGAC 200250Z AUTO VRB02KT 4500 -DZ FEW009/// BKN014/// OVC019/// 14/13 Q1018 RERA REDZ
Mon 20th August 03:50 am

George Best Belfast City
  Metar Aviation API Data Provided by https://www.checkwx.com/ PHP scripts by weather34.com ©2018